Time;durP1;ratioP1;P1;durP2;ratioP2;P2;SDS_P1;SDS_P2;PMS_P1;PMS_P2;Temp;Humidity;BMP_temperature;BMP_pressure;BME280_temperature;BME280_humidity;BME280_pressure;Samples;Min_cycle;Max_cycle;Signal;HPM_P1;HPM_P2
2021/01/22 00:01:42;;;;;;;0.70;0.70;;;19.70;44.40;;;;;;4973746;28;20472;-67
2021/01/22 00:04:09;;;;;;;0.87;0.77;;;19.70;44.40;;;;;;4972323;28;20473;-66
2021/01/22 00:06:35;;;;;;;1.23;0.67;;;19.60;44.50;;;;;;4986324;28;20558;-67
2021/01/22 00:09:01;;;;;;;1.03;0.83;;;19.60;44.40;;;;;;4987851;28;20861;-67
2021/01/22 00:11:27;;;;;;;2.20;2.10;;;19.60;44.50;;;;;;4989302;28;21019;-67
2021/01/22 00:13:54;;;;;;;0.63;0.60;;;19.60;44.50;;;;;;4974960;28;21102;-67
2021/01/22 00:16:20;;;;;;;1.13;1.03;;;19.50;44.40;;;;;;4997712;28;20894;-66
2021/01/22 00:18:46;;;;;;;1.00;0.87;;;19.50;44.50;;;;;;4987749;28;20611;-67
2021/01/22 00:21:13;;;;;;;0.80;0.80;;;19.60;44.60;;;;;;4990959;28;20516;-67
2021/01/22 00:23:39;;;;;;;1.00;1.00;;;19.60;44.60;;;;;;4983494;28;20994;-68
2021/01/22 00:26:05;;;;;;;1.23;0.97;;;19.60;44.60;;;;;;4987212;28;20500;-68
2021/01/22 00:28:32;;;;;;;0.60;0.60;;;19.60;44.50;;;;;;4991027;28;20485;-67
2021/01/22 00:30:58;;;;;;;0.87;0.87;;;19.60;44.50;;;;;;4992916;28;20481;-67
2021/01/22 00:33:24;;;;;;;0.83;0.73;;;19.60;44.50;;;;;;4988023;28;20485;-67
2021/01/22 00:35:50;;;;;;;0.80;0.77;;;19.60;44.40;;;;;;4993206;28;20489;-67
2021/01/22 00:38:17;;;;;;;1.73;0.70;;;19.70;44.50;;;;;;4993508;28;20497;-67
2021/01/22 00:40:43;;;;;;;1.17;0.83;;;19.70;44.40;;;;;;4992868;28;21115;-67
2021/01/22 00:43:10;;;;;;;0.70;0.70;;;19.70;44.40;;;;;;4988666;28;20488;-67
2021/01/22 00:45:36;;;;;;;1.17;0.90;;;19.70;44.40;;;;;;4990556;28;20484;-67
2021/01/22 00:48:02;;;;;;;0.87;0.87;;;19.70;44.50;;;;;;4988823;28;20499;-68
2021/01/22 00:50:28;;;;;;;0.80;0.80;;;19.70;44.50;;;;;;4980109;28;20497;-67
2021/01/22 00:52:54;;;;;;;1.43;0.77;;;19.70;44.60;;;;;;4985984;28;20507;-67
2021/01/22 00:55:21;;;;;;;0.60;0.60;;;19.70;44.50;;;;;;4990587;28;21487;-67
2021/01/22 00:57:47;;;;;;;1.37;0.63;;;19.70;44.70;;;;;;4987183;28;20491;-67
2021/01/22 01:00:15;;;;;;;1.10;0.90;;;19.80;44.60;;;;;;5000949;28;20487;-67
2021/01/22 01:02:41;;;;;;;1.43;0.70;;;19.80;44.60;;;;;;4977966;28;20582;-67
2021/01/22 01:05:08;;;;;;;0.87;0.87;;;19.80;44.60;;;;;;4994230;28;20481;-67
2021/01/22 01:07:34;;;;;;;1.97;1.23;;;19.90;44.60;;;;;;4994589;28;20488;-67
2021/01/22 01:10:01;;;;;;;1.00;1.00;;;19.90;44.50;;;;;;4993160;28;20477;-67
2021/01/22 01:12:28;;;;;;;0.70;0.70;;;19.90;45.30;;;;;;4991002;28;21035;-67
2021/01/22 01:14:54;;;;;;;0.80;0.80;;;19.80;44.50;;;;;;4998174;28;20479;-67
2021/01/22 01:17:20;;;;;;;0.77;0.77;;;19.80;44.60;;;;;;4994215;28;20500;-68
2021/01/22 01:19:46;;;;;;;2.37;0.97;;;19.80;44.70;;;;;;4993985;28;20484;-67
2021/01/22 01:22:12;;;;;;;1.47;0.60;;;19.80;44.80;;;;;;4993488;28;20491;-67
2021/01/22 01:24:38;;;;;;;0.60;0.60;;;19.80;44.90;;;;;;4987088;28;20495;-68
2021/01/22 01:27:05;;;;;;;1.03;0.77;;;19.80;45.00;;;;;;4991495;28;20539;-68
2021/01/22 01:29:32;;;;;;;0.80;0.70;;;19.70;44.90;;;;;;4990541;28;20575;-67
2021/01/22 01:31:58;;;;;;;0.50;0.50;;;19.70;44.90;;;;;;4989335;28;20535;-67
2021/01/22 01:34:24;;;;;;;0.60;0.60;;;19.70;45.00;;;;;;4985978;28;20543;-66
2021/01/22 01:36:50;;;;;;;0.83;0.77;;;19.70;45.00;;;;;;4990650;28;20472;-66
2021/01/22 01:39:16;;;;;;;2.50;0.70;;;19.80;45.20;;;;;;4991051;28;20480;-66
2021/01/22 01:41:42;;;;;;;0.60;0.60;;;19.70;45.00;;;;;;4981930;28;20502;-66
2021/01/22 01:44:08;;;;;;;0.93;0.60;;;19.70;45.10;;;;;;4988653;28;20570;-67
2021/01/22 01:46:35;;;;;;;1.07;0.60;;;19.70;45.10;;;;;;4987839;28;20489;-67
2021/01/22 01:49:02;;;;;;;0.67;0.67;;;19.70;45.20;;;;;;4984054;28;20485;-67
2021/01/22 01:51:28;;;;;;;1.37;0.90;;;19.70;45.10;;;;;;5004939;28;20504;-67
2021/01/22 01:53:54;;;;;;;0.70;0.63;;;19.70;45.20;;;;;;4985346;28;20500;-66
2021/01/22 01:56:21;;;;;;;0.50;0.50;;;19.80;45.20;;;;;;4988787;28;21005;-67
2021/01/22 01:58:47;;;;;;;0.93;0.60;;;19.80;45.20;;;;;;4990975;28;20492;-67
2021/01/22 02:01:13;;;;;;;0.63;0.63;;;19.80;45.20;;;;;;4989386;28;20489;-67
2021/01/22 02:03:40;;;;;;;0.70;0.60;;;19.80;45.20;;;;;;4985271;28;20762;-67
2021/01/22 02:06:07;;;;;;;0.70;0.70;;;19.80;45.10;;;;;;4989387;28;20480;-67
2021/01/22 02:08:33;;;;;;;0.70;0.70;;;19.90;45.10;;;;;;4990266;28;20493;-67
2021/01/22 02:11:00;;;;;;;0.50;0.50;;;19.90;45.00;;;;;;4992050;28;21457;-67
2021/01/22 02:13:26;;;;;;;0.63;0.63;;;19.90;45.00;;;;;;4985922;28;20644;-67
2021/01/22 02:15:52;;;;;;;0.50;0.50;;;19.90;45.10;;;;;;4990844;28;20476;-67
2021/01/22 02:18:18;;;;;;;1.00;0.90;;;19.90;45.10;;;;;;4987497;28;20497;-68
2021/01/22 02:20:53;;;;;;;2.83;0.50;;;19.90;45.20;;;;;;4989624;28;20491;-65
2021/01/22 02:23:21;;;;;;;1.50;0.90;;;19.80;45.20;;;;;;4973824;28;21072;-67
2021/01/22 02:25:47;;;;;;;0.50;0.50;;;19.90;45.30;;;;;;4988855;28;21488;-67
2021/01/22 02:28:14;;;;;;;0.40;0.40;;;19.80;45.30;;;;;;4988339;28;20492;-67
2021/01/22 02:30:41;;;;;;;0.50;0.50;;;19.80;45.30;;;;;;4989295;28;20555;-66
2021/01/22 02:33:07;;;;;;;0.87;0.60;;;19.80;45.40;;;;;;4986419;28;20480;-67
2021/01/22 02:35:33;;;;;;;0.60;0.60;;;19.80;45.40;;;;;;4992490;28;20496;-67
2021/01/22 02:38:00;;;;;;;0.60;0.53;;;19.80;45.40;;;;;;4974117;28;20481;-67
2021/01/22 02:40:26;;;;;;;0.60;0.60;;;19.80;45.40;;;;;;4991039;28;20551;-67
2021/01/22 02:42:52;;;;;;;0.70;0.60;;;19.80;45.40;;;;;;4986059;28;20910;-67
2021/01/22 02:45:19;;;;;;;0.60;0.40;;;19.70;45.40;;;;;;4990876;28;21489;-67
2021/01/22 02:47:46;;;;;;;0.60;0.60;;;19.80;45.50;;;;;;4978345;28;20481;-67
2021/01/22 02:50:16;;;;;;;1.27;0.70;;;19.70;45.40;;;;;;4976697;28;20484;-68
2021/01/22 02:52:42;;;;;;;0.70;0.70;;;19.80;45.50;;;;;;4987421;28;20575;-67
2021/01/22 02:55:10;;;;;;;0.60;0.60;;;19.70;45.40;;;;;;4993190;28;20604;-66
2021/01/22 02:57:37;;;;;;;0.73;0.60;;;19.80;45.50;;;;;;4991469;28;20503;-66
2021/01/22 03:00:07;;;;;;;0.73;0.73;;;19.80;45.50;;;;;;4996016;28;20519;-66
2021/01/22 03:02:38;;;;;;;0.60;0.60;;;19.80;45.50;;;;;;4985805;28;20493;-67
2021/01/22 03:05:05;;;;;;;0.57;0.50;;;19.80;46.20;;;;;;4990346;28;20480;-67
2021/01/22 03:07:35;;;;;;;0.60;0.57;;;19.90;45.50;;;;;;4981539;28;20683;-67
2021/01/22 03:10:01;;;;;;;0.57;0.57;;;19.90;45.60;;;;;;4989935;28;21000;-67
2021/01/22 03:12:27;;;;;;;0.70;0.60;;;19.80;45.40;;;;;;4988570;28;20492;-66
2021/01/22 03:14:53;;;;;;;0.60;0.60;;;19.90;45.60;;;;;;4986955;28;20492;-66
2021/01/22 03:17:19;;;;;;;0.70;0.60;;;19.80;45.50;;;;;;4987965;28;20496;-67
2021/01/22 03:19:47;;;;;;;0.60;0.60;;;19.80;45.60;;;;;;4985038;28;20552;-66
2021/01/22 03:22:13;;;;;;;0.60;0.60;;;19.80;45.60;;;;;;4989470;28;20484;-66
2021/01/22 03:24:40;;;;;;;0.50;0.50;;;19.80;45.60;;;;;;4985967;28;20483;-67
2021/01/22 03:27:06;;;;;;;0.50;0.50;;;19.80;45.60;;;;;;4986809;28;20489;-68
2021/01/22 03:29:32;;;;;;;0.50;0.50;;;19.80;45.60;;;;;;4987771;28;20487;-67
2021/01/22 03:31:59;;;;;;;0.50;0.40;;;19.80;45.60;;;;;;4989542;28;21037;-67
2021/01/22 03:34:26;;;;;;;0.80;0.80;;;19.80;45.60;;;;;;4987047;28;20952;-67
2021/01/22 03:36:54;;;;;;;0.70;0.50;;;19.80;45.60;;;;;;4977488;28;20484;-67
2021/01/22 03:39:21;;;;;;;0.60;0.60;;;19.90;45.60;;;;;;4989831;28;20479;-67
2021/01/22 03:41:47;;;;;;;0.70;0.70;;;19.90;45.60;;;;;;4987758;28;20909;-66
2021/01/22 03:44:14;;;;;;;0.50;0.50;;;19.90;45.60;;;;;;4982846;28;20865;-66
2021/01/22 03:46:40;;;;;;;0.80;0.80;;;19.90;45.60;;;;;;4978552;28;20477;-67
2021/01/22 03:49:06;;;;;;;0.67;0.50;;;19.90;45.50;;;;;;4989644;28;20496;-67
2021/01/22 03:51:32;;;;;;;2.70;0.80;;;20.00;45.60;;;;;;4984456;28;20493;-66
2021/01/22 03:53:59;;;;;;;0.60;0.60;;;20.00;45.60;;;;;;4981402;28;21596;-67
2021/01/22 03:56:25;;;;;;;0.50;0.50;;;19.90;45.60;;;;;;4987846;28;20559;-67
2021/01/22 03:58:51;;;;;;;0.40;0.40;;;19.90;45.60;;;;;;4989781;28;20909;-67
2021/01/22 04:01:19;;;;;;;2.67;0.97;;;19.90;45.80;;;;;;4990735;28;21128;-67
2021/01/22 04:03:45;;;;;;;0.60;0.60;;;19.90;45.80;;;;;;4973516;28;20492;-67
2021/01/22 04:06:11;;;;;;;0.47;0.47;;;19.80;45.80;;;;;;4988478;28;21000;-67
2021/01/22 04:08:37;;;;;;;0.50;0.50;;;19.90;45.90;;;;;;4994184;28;20914;-66
2021/01/22 04:11:04;;;;;;;0.50;0.50;;;19.80;46.00;;;;;;4992858;28;20485;-66
2021/01/22 04:13:30;;;;;;;0.60;0.60;;;19.80;46.20;;;;;;4989080;28;20492;-67
2021/01/22 04:15:56;;;;;;;0.50;0.50;;;19.80;46.20;;;;;;4994608;28;20484;-65
2021/01/22 04:18:23;;;;;;;1.23;0.60;;;19.70;46.10;;;;;;4995083;28;21621;-67
2021/01/22 04:20:49;;;;;;;0.80;0.73;;;19.70;46.30;;;;;;4997544;28;20475;-67
2021/01/22 04:23:15;;;;;;;0.63;0.63;;;19.80;46.10;;;;;;4988717;28;20508;-67
2021/01/22 04:25:41;;;;;;;0.53;0.53;;;19.90;46.10;;;;;;4994845;28;20479;-67
2021/01/22 04:28:08;;;;;;;0.50;0.50;;;19.80;46.10;;;;;;4982759;28;20514;-67
2021/01/22 04:30:34;;;;;;;0.90;0.70;;;19.80;46.10;;;;;;4981521;28;20542;-67
2021/01/22 04:33:00;;;;;;;0.77;0.77;;;19.80;46.10;;;;;;4989272;28;20501;-66
2021/01/22 04:35:27;;;;;;;0.50;0.50;;;19.80;46.00;;;;;;4993385;28;20481;-67
2021/01/22 04:37:53;;;;;;;0.60;0.60;;;19.80;46.10;;;;;;4983144;28;20487;-67
2021/01/22 04:40:19;;;;;;;2.23;0.70;;;19.80;45.90;;;;;;4992225;28;20480;-67
2021/01/22 04:42:45;;;;;;;0.70;0.60;;;19.80;45.80;;;;;;4989334;28;20485;-67
2021/01/22 04:45:13;;;;;;;0.50;0.50;;;19.80;45.80;;;;;;4996240;28;20500;-67
2021/01/22 04:47:39;;;;;;;0.93;0.70;;;19.70;45.80;;;;;;4999050;28;20481;-67
2021/01/22 04:50:07;;;;;;;1.03;0.50;;;19.70;45.80;;;;;;4999218;28;20496;-66
2021/01/22 04:52:33;;;;;;;0.50;0.50;;;19.70;45.80;;;;;;4993573;28;20542;-66
2021/01/22 04:54:59;;;;;;;0.50;0.50;;;19.70;45.90;;;;;;4994389;28;20501;-67
2021/01/22 04:57:26;;;;;;;0.50;0.50;;;19.70;45.70;;;;;;4993316;28;20526;-67
2021/01/22 04:59:52;;;;;;;0.93;0.73;;;19.80;45.60;;;;;;4994247;28;20476;-67
2021/01/22 05:02:19;;;;;;;0.80;0.80;;;19.70;45.70;;;;;;4993698;28;20489;-66
2021/01/22 05:04:46;;;;;;;0.50;0.50;;;19.60;45.70;;;;;;4980509;28;22065;-66
2021/01/22 05:07:12;;;;;;;0.40;0.40;;;19.60;45.80;;;;;;4988794;28;20815;-66
2021/01/22 05:09:38;;;;;;;0.50;0.50;;;19.60;45.80;;;;;;5001440;28;20483;-67
2021/01/22 05:12:05;;;;;;;0.60;0.60;;;19.60;45.70;;;;;;4980248;28;20500;-66
2021/01/22 05:14:31;;;;;;;0.50;0.50;;;19.60;45.70;;;;;;4994663;28;20492;-66
2021/01/22 05:17:02;;;;;;;0.40;0.40;;;19.60;45.50;;;;;;4993415;28;20480;-66
2021/01/22 05:19:29;;;;;;;0.60;0.50;;;19.60;45.60;;;;;;4988929;28;21442;-67
2021/01/22 05:21:55;;;;;;;0.50;0.50;;;19.50;45.50;;;;;;4992005;28;20507;-67
2021/01/22 05:24:21;;;;;;;0.47;0.47;;;19.60;45.50;;;;;;4966778;28;20491;-67
2021/01/22 05:26:48;;;;;;;1.07;0.40;;;19.60;45.40;;;;;;4977042;28;21693;-66
2021/01/22 05:29:17;;;;;;;0.40;0.40;;;19.60;45.30;;;;;;4978944;28;20500;-67
2021/01/22 05:31:43;;;;;;;0.60;0.60;;;19.60;45.20;;;;;;4990294;28;20520;-66
2021/01/22 05:34:09;;;;;;;0.40;0.40;;;19.70;45.20;;;;;;4989509;28;20591;-67
2021/01/22 05:36:37;;;;;;;0.40;0.40;;;19.70;45.00;;;;;;4992378;28;20504;-66
2021/01/22 05:39:04;;;;;;;0.40;0.40;;;19.60;44.90;;;;;;4991850;28;20520;-66
2021/01/22 05:41:30;;;;;;;0.40;0.40;;;19.70;44.80;;;;;;4991880;28;20488;-67
2021/01/22 05:43:56;;;;;;;0.60;0.47;;;19.70;44.90;;;;;;4990576;28;20480;-66
2021/01/22 05:46:23;;;;;;;0.50;0.50;;;19.70;44.70;;;;;;4991311;28;20492;-68
2021/01/22 05:49:06;;;;;;;0.40;0.40;;;19.70;44.30;;;;;;4990622;28;20835;-67
2021/01/22 05:51:32;;;;;;;0.60;0.60;;;19.70;44.20;;;;;;4991252;28;20985;-67
2021/01/22 05:53:59;;;;;;;0.50;0.50;;;19.80;44.30;;;;;;4987013;28;20551;-66
2021/01/22 05:56:26;;;;;;;0.40;0.40;;;19.80;44.30;;;;;;4988705;28;20485;-67
2021/01/22 05:58:52;;;;;;;0.50;0.50;;;19.80;44.30;;;;;;4990574;28;21072;-66
2021/01/22 06:01:19;;;;;;;0.50;0.50;;;19.80;44.30;;;;;;4979995;28;20539;-67
2021/01/22 06:03:45;;;;;;;0.40;0.40;;;19.80;44.30;;;;;;4988385;28;20566;-67
2021/01/22 06:06:12;;;;;;;0.43;0.43;;;19.60;44.30;;;;;;4979471;28;20489;-67
2021/01/22 06:08:50;;;;;;;0.40;0.40;;;19.70;44.50;;;;;;4991472;28;20488;-67
2021/01/22 06:11:18;;;;;;;1.23;0.97;;;19.60;44.30;;;;;;4981445;28;20485;-67
2021/01/22 06:13:45;;;;;;;0.50;0.50;;;19.70;44.50;;;;;;4987881;28;20511;-68
2021/01/22 06:16:11;;;;;;;0.50;0.50;;;19.60;44.20;;;;;;4988587;28;20493;-67
2021/01/22 06:18:37;;;;;;;0.50;0.50;;;19.60;44.20;;;;;;4983233;28;20491;-66
2021/01/22 06:21:09;;;;;;;0.90;0.60;;;19.70;44.30;;;;;;5001757;28;20518;-66
2021/01/22 06:23:35;;;;;;;0.60;0.60;;;19.70;44.00;;;;;;4988650;28;20646;-67
2021/01/22 06:26:02;;;;;;;0.40;0.40;;;19.70;43.80;;;;;;4992509;28;20495;-67
2021/01/22 06:28:30;;;;;;;0.60;0.60;;;19.80;43.70;;;;;;4992017;28;20512;-68
2021/01/22 06:30:56;;;;;;;0.83;0.70;;;19.80;43.60;;;;;;4984257;28;20488;-67
2021/01/22 06:33:22;;;;;;;0.50;0.50;;;19.80;43.50;;;;;;4983799;28;20493;-67
2021/01/22 06:35:49;;;;;;;1.17;0.57;;;19.80;43.60;;;;;;4990248;28;20476;-67
2021/01/22 06:38:15;;;;;;;0.50;0.40;;;19.80;43.40;;;;;;4989831;28;20492;-67
2021/01/22 06:40:41;;;;;;;1.33;0.50;;;19.80;43.60;;;;;;4988787;28;21161;-67
2021/01/22 06:43:07;;;;;;;0.60;0.60;;;19.80;43.70;;;;;;4986771;28;21639;-67
2021/01/22 06:45:34;;;;;;;0.40;0.40;;;19.80;43.50;;;;;;4990241;28;20477;-67
2021/01/22 06:48:01;;;;;;;5.80;0.60;;;19.90;43.40;;;;;;4989928;28;20489;-67
2021/01/22 06:50:28;;;;;;;0.60;0.60;;;19.90;43.30;;;;;;4988075;28;20481;-67
2021/01/22 06:53:07;;;;;;;0.50;0.50;;;19.90;43.20;;;;;;4986820;28;20492;-68
2021/01/22 06:55:33;;;;;;;0.50;0.50;;;19.90;43.30;;;;;;4977059;28;21083;-67
2021/01/22 06:58:24;;;;;;;0.50;0.50;;;19.90;43.30;;;;;;4989898;28;20476;-66
2021/01/22 07:00:53;;;;;;;0.50;0.50;;;19.90;43.30;;;;;;4973754;28;21200;-67
2021/01/22 07:03:47;;;;;;;0.47;0.47;;;19.90;43.30;;;;;;4976643;28;20471;-67
2021/01/22 07:06:48;;;;;;;0.50;0.50;;;19.90;43.40;;;;;;4976952;28;20595;-67
2021/01/22 07:09:14;;;;;;;0.40;0.40;;;19.90;43.40;;;;;;4987642;28;20484;-67
2021/01/22 07:11:56;;;;;;;0.60;0.50;;;19.90;43.40;;;;;;4987339;28;20492;-67
2021/01/22 07:14:32;;;;;;;0.50;0.50;;;19.90;43.40;;;;;;4984636;28;20479;-67
2021/01/22 07:17:01;;;;;;;0.40;0.40;;;19.90;43.40;;;;;;4989034;28;20492;-67
2021/01/22 07:19:27;;;;;;;0.57;0.57;;;19.90;43.40;;;;;;4989736;28;20530;-67
2021/01/22 07:21:54;;;;;;;0.50;0.50;;;19.90;43.50;;;;;;4990410;28;20485;-68
2021/01/22 07:24:20;;;;;;;0.60;0.50;;;19.90;43.50;;;;;;4984558;28;20562;-66
2021/01/22 07:26:46;;;;;;;0.50;0.50;;;19.90;43.50;;;;;;4988703;28;20487;-66
2021/01/22 07:29:14;;;;;;;0.50;0.50;;;19.90;43.60;;;;;;4987209;28;20515;-66
2021/01/22 07:31:57;;;;;;;0.50;0.50;;;19.80;43.50;;;;;;4984812;28;20554;-67
2021/01/22 07:34:49;;;;;;;0.73;0.50;;;19.80;43.50;;;;;;4973203;28;21097;-67
2021/01/22 07:37:19;;;;;;;0.50;0.50;;;19.80;43.40;;;;;;4987801;28;20567;-67
2021/01/22 07:39:46;;;;;;;0.60;0.60;;;19.90;43.80;;;;;;4990640;28;20484;-66
2021/01/22 07:42:13;;;;;;;0.60;0.60;;;19.80;43.80;;;;;;4987792;28;21004;-67
2021/01/22 07:44:39;;;;;;;0.40;0.40;;;19.80;43.80;;;;;;4987484;28;20547;-66
2021/01/22 07:47:06;;;;;;;0.50;0.50;;;19.90;43.80;;;;;;4990332;28;20484;-66
2021/01/22 07:49:32;;;;;;;1.47;0.50;;;19.90;43.80;;;;;;4990359;28;20511;-66
2021/01/22 07:52:00;;;;;;;0.77;0.50;;;19.90;43.80;;;;;;4991965;28;20536;-66
2021/01/22 07:54:26;;;;;;;0.70;0.70;;;19.90;43.90;;;;;;4975231;28;20922;-66
2021/01/22 07:56:53;;;;;;;1.20;0.73;;;19.90;43.80;;;;;;4987799;28;20489;-67
2021/01/22 07:59:19;;;;;;;0.60;0.60;;;19.90;43.90;;;;;;4974169;28;20495;-67
2021/01/22 08:01:45;;;;;;;0.50;0.50;;;19.80;44.00;;;;;;4978091;28;20494;-66
2021/01/22 08:04:11;;;;;;;0.97;0.97;;;19.80;44.00;;;;;;4992440;28;20484;-67
2021/01/22 08:06:47;;;;;;;0.60;0.60;;;19.70;44.10;;;;;;4989234;28;20480;-67
2021/01/22 08:09:17;;;;;;;0.70;0.60;;;19.70;44.30;;;;;;4986815;28;20492;-66
2021/01/22 08:11:43;;;;;;;0.50;0.50;;;19.80;44.30;;;;;;4987079;28;20503;-67
2021/01/22 08:14:09;;;;;;;1.70;0.57;;;19.80;44.20;;;;;;4986187;28;20517;-67
2021/01/22 08:16:36;;;;;;;1.33;0.90;;;19.70;44.10;;;;;;4988626;28;20531;-67
2021/01/22 08:19:03;;;;;;;0.70;0.70;;;19.70;44.10;;;;;;4989444;28;20566;-66
2021/01/22 08:21:29;;;;;;;0.57;0.53;;;19.70;44.10;;;;;;4993331;28;20473;-66
2021/01/22 08:23:57;;;;;;;0.70;0.70;;;19.70;44.00;;;;;;4989759;28;20485;-67
2021/01/22 08:26:26;;;;;;;0.60;0.60;;;19.70;44.20;;;;;;4994714;28;20480;-66
2021/01/22 08:28:54;;;;;;;0.50;0.50;;;19.70;44.30;;;;;;4981900;28;20532;-66
2021/01/22 08:31:20;;;;;;;2.20;1.03;;;19.70;44.30;;;;;;4988039;28;20481;-66
2021/01/22 08:33:46;;;;;;;0.70;0.70;;;19.70;44.30;;;;;;4985111;28;20488;-67
2021/01/22 08:36:12;;;;;;;0.77;0.60;;;19.70;45.20;;;;;;4986827;28;20504;-66
2021/01/22 08:38:39;;;;;;;1.73;0.73;;;19.70;44.30;;;;;;4996643;28;20487;-67
2021/01/22 08:41:05;;;;;;;0.60;0.60;;;19.60;44.30;;;;;;4975668;28;20483;-67
2021/01/22 08:43:50;;;;;;;1.00;0.80;;;19.60;44.50;;;;;;4988412;28;21220;-66
2021/01/22 08:46:16;;;;;;;2.40;0.60;;;19.50;44.60;;;;;;4986510;28;20473;-66
2021/01/22 08:48:42;;;;;;;1.10;0.97;;;19.60;44.40;;;;;;4987295;28;20476;-67
2021/01/22 08:51:08;;;;;;;0.73;0.73;;;19.60;44.20;;;;;;4987631;28;21211;-67
2021/01/22 08:53:35;;;;;;;0.70;0.70;;;19.70;44.20;;;;;;4986751;28;20468;-66
2021/01/22 08:56:10;;;;;;;0.60;0.60;;;19.70;44.00;;;;;;4990257;28;20480;-66
2021/01/22 08:59:02;;;;;;;0.90;0.50;;;19.70;43.80;;;;;;4992644;28;20555;-66
2021/01/22 09:01:53;;;;;;;0.83;0.83;;;19.80;43.80;;;;;;4994333;28;20562;-67
2021/01/22 09:04:27;;;;;;;0.60;0.60;;;19.80;43.80;;;;;;4984477;28;20547;-67
2021/01/22 09:06:54;;;;;;;0.57;0.57;;;19.80;43.70;;;;;;4974272;28;20479;-67
2021/01/22 09:09:39;;;;;;;0.70;0.60;;;19.90;43.80;;;;;;4980762;28;20568;-66
2021/01/22 09:12:10;;;;;;;2.30;0.97;;;19.90;43.60;;;;;;4977556;28;20545;-66
2021/01/22 09:14:47;;;;;;;1.60;0.70;;;19.90;43.50;;;;;;4989642;28;20485;-67
2021/01/22 09:17:21;;;;;;;1.00;0.73;;;20.00;43.50;;;;;;4994741;28;20492;-65
2021/01/22 09:20:00;;;;;;;0.70;0.70;;;20.00;43.50;;;;;;4993804;28;20538;-67
2021/01/22 09:22:26;;;;;;;1.77;0.70;;;20.10;43.40;;;;;;4981361;28;20481;-67
2021/01/22 09:24:53;;;;;;;0.67;0.67;;;20.10;43.40;;;;;;4988707;28;20481;-67
2021/01/22 09:27:19;;;;;;;2.20;0.80;;;20.10;43.40;;;;;;4992556;28;20497;-67
2021/01/22 09:29:46;;;;;;;1.77;0.90;;;20.00;43.30;;;;;;4981282;28;20496;-66
2021/01/22 09:32:13;;;;;;;0.70;0.70;;;20.00;43.30;;;;;;4988356;28;20855;-67
2021/01/22 09:34:39;;;;;;;1.47;0.70;;;20.00;43.40;;;;;;4989019;28;20557;-66
2021/01/22 09:37:05;;;;;;;0.90;0.90;;;20.00;43.40;;;;;;4991823;28;20991;-67
2021/01/22 09:39:31;;;;;;;1.87;0.83;;;20.00;43.40;;;;;;4992855;28;20530;-67
2021/01/22 09:41:57;;;;;;;1.10;0.90;;;19.90;43.40;;;;;;4985438;28;20488;-67
2021/01/22 09:44:24;;;;;;;1.20;0.80;;;19.90;43.50;;;;;;4984470;28;21005;-66
2021/01/22 09:46:51;;;;;;;1.77;0.80;;;19.90;43.70;;;;;;4992885;28;20485;-66
2021/01/22 09:49:17;;;;;;;1.63;1.03;;;19.90;43.50;;;;;;4990544;28;20551;-67
2021/01/22 09:51:43;;;;;;;1.23;0.87;;;19.90;43.60;;;;;;4993497;28;20484;-67
2021/01/22 09:54:10;;;;;;;0.57;0.57;;;19.90;43.60;;;;;;4990265;28;20571;-67
2021/01/22 09:56:36;;;;;;;0.70;0.70;;;19.90;43.60;;;;;;4989938;28;20483;-66
2021/01/22 09:59:05;;;;;;;1.03;0.67;;;19.90;43.70;;;;;;4996812;28;20476;-68
2021/01/22 10:01:32;;;;;;;1.67;0.70;;;19.90;43.70;;;;;;4991040;28;20511;-68
2021/01/22 10:03:59;;;;;;;0.90;0.90;;;19.90;43.70;;;;;;4977595;28;20927;-68
2021/01/22 10:06:25;;;;;;;0.70;0.70;;;19.90;43.70;;;;;;4992087;28;20488;-68
2021/01/22 10:08:51;;;;;;;0.87;0.87;;;19.90;43.70;;;;;;4990434;28;20492;-68
2021/01/22 10:11:17;;;;;;;1.30;1.07;;;20.00;43.70;;;;;;4989470;28;20492;-67
2021/01/22 10:13:43;;;;;;;1.03;1.00;;;19.90;43.70;;;;;;4992747;28;20493;-68
2021/01/22 10:16:09;;;;;;;1.60;0.80;;;19.90;43.80;;;;;;4985386;28;20476;-68
2021/01/22 10:18:36;;;;;;;2.00;0.83;;;19.80;43.90;;;;;;4987126;28;20472;-68
2021/01/22 10:21:03;;;;;;;0.90;0.70;;;19.80;43.90;;;;;;4995706;28;20554;-67
2021/01/22 10:23:29;;;;;;;1.80;0.87;;;19.90;43.80;;;;;;4988128;28;20480;-67
2021/01/22 10:25:55;;;;;;;1.00;0.70;;;19.80;43.70;;;;;;4990830;28;20542;-67
2021/01/22 10:28:21;;;;;;;0.70;0.70;;;19.90;43.60;;;;;;4992731;28;20491;-67
2021/01/22 10:30:48;;;;;;;1.33;1.00;;;19.90;43.50;;;;;;4989055;28;21538;-67
2021/01/22 10:33:15;;;;;;;0.83;0.83;;;19.90;43.50;;;;;;4986541;28;20858;-67
2021/01/22 10:35:41;;;;;;;3.50;0.70;;;19.90;43.40;;;;;;4989349;28;20487;-67
2021/01/22 10:38:08;;;;;;;0.87;0.87;;;19.90;43.40;;;;;;4990658;28;20488;-67
2021/01/22 10:40:34;;;;;;;1.07;0.80;;;19.90;43.60;;;;;;4992048;28;20481;-67
2021/01/22 10:43:00;;;;;;;1.63;0.70;;;19.90;43.80;;;;;;4979115;28;20496;-67
2021/01/22 10:45:26;;;;;;;0.70;0.70;;;19.90;43.70;;;;;;4990420;28;20481;-67
2021/01/22 10:47:52;;;;;;;1.60;0.70;;;19.90;43.70;;;;;;4987928;28;20481;-66
2021/01/22 10:50:19;;;;;;;1.00;0.90;;;20.00;43.70;;;;;;4988050;28;20546;-68
2021/01/22 10:52:45;;;;;;;1.70;0.67;;;20.00;43.60;;;;;;4986688;28;21087;-67
2021/01/22 10:55:13;;;;;;;3.90;0.80;;;20.00;43.70;;;;;;4979086;28;20492;-67
2021/01/22 10:57:39;;;;;;;0.73;0.73;;;20.00;43.70;;;;;;4993694;28;20579;-67
2021/01/22 11:00:06;;;;;;;1.10;0.70;;;20.00;43.80;;;;;;4989274;28;20617;-66
2021/01/22 11:02:33;;;;;;;1.50;0.80;;;20.00;43.90;;;;;;4974588;28;20493;-67
2021/01/22 11:04:59;;;;;;;2.10;1.00;;;19.90;43.70;;;;;;4986995;28;20488;-68
2021/01/22 11:07:25;;;;;;;0.80;0.80;;;19.90;43.80;;;;;;4992936;28;20507;-67
2021/01/22 11:09:51;;;;;;;1.00;0.87;;;19.90;43.90;;;;;;4990447;28;20493;-67
2021/01/22 11:12:18;;;;;;;1.43;0.73;;;19.90;43.70;;;;;;4986998;28;20515;-67
2021/01/22 11:14:45;;;;;;;0.80;0.80;;;19.90;43.60;;;;;;4991981;28;20475;-67
2021/01/22 11:17:11;;;;;;;1.23;0.90;;;19.90;43.50;;;;;;4989798;28;20559;-67
2021/01/22 11:19:38;;;;;;;0.73;0.67;;;19.90;43.40;;;;;;4980297;28;20510;-67
2021/01/22 11:22:04;;;;;;;0.73;0.73;;;19.90;43.40;;;;;;4986969;28;20497;-68
2021/01/22 11:24:30;;;;;;;0.70;0.70;;;19.90;43.20;;;;;;4987751;28;20605;-68
2021/01/22 11:26:56;;;;;;;1.13;1.13;;;19.90;43.20;;;;;;4990147;28;20500;-67
2021/01/22 11:29:23;;;;;;;1.77;0.87;;;19.90;43.20;;;;;;4991843;28;20489;-67
2021/01/22 11:31:49;;;;;;;1.60;0.77;;;19.90;43.10;;;;;;4991563;28;20480;-67
2021/01/22 11:34:15;;;;;;;0.77;0.70;;;20.00;43.30;;;;;;4989275;28;20489;-67
2021/01/22 11:36:42;;;;;;;2.40;1.07;;;20.00;43.30;;;;;;4990007;28;20996;-67
2021/01/22 11:39:08;;;;;;;2.00;0.90;;;20.00;43.40;;;;;;4990702;28;21008;-67
2021/01/22 11:41:34;;;;;;;2.40;1.10;;;20.00;43.50;;;;;;4979807;28;20546;-67
2021/01/22 11:44:00;;;;;;;0.40;0.40;;;20.00;43.50;;;;;;4983860;28;20488;-68
2021/01/22 11:46:27;;;;;;;1.47;1.00;;;20.00;43.50;;;;;;4985966;28;20492;-67
2021/01/22 11:48:54;;;;;;;3.13;0.70;;;20.00;43.50;;;;;;4984435;28;20493;-67
2021/01/22 11:51:20;;;;;;;2.00;1.10;;;19.90;43.50;;;;;;4994786;28;20479;-67
2021/01/22 11:53:46;;;;;;;0.90;0.90;;;20.00;43.70;;;;;;4991697;28;20853;-67
2021/01/22 11:56:12;;;;;;;1.43;0.80;;;19.90;43.90;;;;;;4989636;28;20493;-67
2021/01/22 11:58:38;;;;;;;1.30;0.80;;;19.80;43.90;;;;;;4988824;28;21665;-67
2021/01/22 12:01:04;;;;;;;0.77;0.77;;;19.80;43.70;;;;;;4984724;28;20486;-67
2021/01/22 12:03:31;;;;;;;2.70;0.90;;;19.80;43.60;;;;;;4986873;28;20484;-66
2021/01/22 12:05:57;;;;;;;1.23;0.87;;;19.80;43.50;;;;;;4983274;28;20481;-67
2021/01/22 12:08:24;;;;;;;0.83;0.83;;;19.80;43.40;;;;;;4988657;28;20484;-68
2021/01/22 12:10:50;;;;;;;1.23;1.00;;;19.90;43.50;;;;;;4987055;28;21052;-68
2021/01/22 12:13:16;;;;;;;1.97;1.03;;;19.90;43.40;;;;;;4987045;28;20489;-67
2021/01/22 12:15:42;;;;;;;2.63;0.87;;;19.90;44.10;;;;;;4989941;28;20481;-67
2021/01/22 12:18:10;;;;;;;1.20;0.80;;;19.90;43.20;;;;;;4984642;28;20497;-68
2021/01/22 12:20:37;;;;;;;0.90;0.70;;;19.90;43.20;;;;;;4988070;28;20604;-67
2021/01/22 12:23:03;;;;;;;0.90;0.90;;;19.80;43.40;;;;;;4990525;28;21150;-67
2021/01/22 12:25:29;;;;;;;4.00;0.90;;;19.80;43.30;;;;;;4989815;28;20495;-67
2021/01/22 12:27:56;;;;;;;1.90;0.60;;;19.80;43.40;;;;;;4991787;28;20561;-67
2021/01/22 12:30:23;;;;;;;0.80;0.80;;;19.80;43.90;;;;;;4992793;28;20478;-66
2021/01/22 12:32:49;;;;;;;2.13;1.10;;;19.70;43.60;;;;;;4989354;28;20474;-66
2021/01/22 12:35:16;;;;;;;0.80;0.80;;;19.70;43.80;;;;;;4993253;28;21083;-66
2021/01/22 12:37:43;;;;;;;0.90;0.90;;;19.70;44.00;;;;;;4987473;28;20488;-66
2021/01/22 12:40:11;;;;;;;1.17;1.07;;;19.70;44.00;;;;;;4993499;28;20527;-66
2021/01/22 12:42:37;;;;;;;3.73;0.87;;;19.70;44.00;;;;;;4990885;28;20547;-66
2021/01/22 12:45:04;;;;;;;2.13;1.00;;;19.70;43.90;;;;;;4993512;28;20481;-66
2021/01/22 12:47:30;;;;;;;0.97;0.83;;;19.80;43.70;;;;;;4991443;28;20476;-67
2021/01/22 12:49:56;;;;;;;0.70;0.70;;;19.90;43.70;;;;;;4990337;28;20540;-67